Time;durP1;ratioP1;P1;durP2;ratioP2;P2;SDS_P1;SDS_P2;PMS_P1;PMS_P2;Temp;Humidity;BMP_temperature;BMP_pressure;BME280_temperature;BME280_humidity;BME280_pressure;Samples;Min_cycle;Max_cycle;Signal;HPM_P1;HPM_P2
2021/09/22 00:02:00;;;;;;;20.17;12.23;;;12.70;88.70;;;;;;4979854;28;20030;-91
2021/09/22 00:04:26;;;;;;;19.35;12.23;;;12.70;88.80;;;;;;5011638;28;20033;-92
2021/09/22 00:06:51;;;;;;;18.23;11.30;;;12.70;88.90;;;;;;4998413;28;20062;-91
2021/09/22 00:09:17;;;;;;;20.02;12.20;;;12.80;89.10;;;;;;4999448;28;20038;-91
2021/09/22 00:11:43;;;;;;;18.38;11.90;;;12.70;89.20;;;;;;5011867;28;20023;-88
2021/09/22 00:14:09;;;;;;;17.00;11.90;;;12.60;89.30;;;;;;4994563;28;20031;-90
2021/09/22 00:16:34;;;;;;;19.95;11.50;;;12.60;89.50;;;;;;4994377;28;20038;-87
2021/09/22 00:19:00;;;;;;;17.50;11.30;;;12.60;89.60;;;;;;4994393;28;20451;-88
2021/09/22 00:21:25;;;;;;;19.15;12.43;;;12.60;89.90;;;;;;4993294;28;20046;-88
2021/09/22 00:23:51;;;;;;;17.63;11.63;;;12.60;90.00;;;;;;4976704;28;20030;-88
2021/09/22 00:26:17;;;;;;;18.70;11.88;;;12.60;90.00;;;;;;4992466;28;20410;-87
2021/09/22 00:28:42;;;;;;;19.83;12.27;;;12.60;90.10;;;;;;4993670;28;20029;-87
2021/09/22 00:31:08;;;;;;;18.70;12.38;;;12.50;90.20;;;;;;4976989;28;20054;-88
2021/09/22 00:33:35;;;;;;;20.23;12.35;;;12.60;90.30;;;;;;4993942;28;20042;-87
2021/09/22 00:36:00;;;;;;;19.33;11.77;;;12.50;90.30;;;;;;4977674;28;20030;-88
2021/09/22 00:38:26;;;;;;;17.20;11.30;;;12.40;90.40;;;;;;4993547;28;20505;-88
2021/09/22 00:40:52;;;;;;;18.60;11.57;;;12.40;90.40;;;;;;4977561;28;20050;-87
2021/09/22 00:43:18;;;;;;;16.77;10.95;;;12.40;90.50;;;;;;4993816;28;20023;-88
2021/09/22 00:45:45;;;;;;;17.40;10.95;;;12.40;90.50;;;;;;4994031;28;20026;-87
2021/09/22 00:48:10;;;;;;;18.42;11.65;;;12.40;90.50;;;;;;4993850;28;20406;-87
2021/09/22 00:50:36;;;;;;;15.13;10.43;;;12.30;90.50;;;;;;4977639;28;20026;-88
2021/09/22 00:53:03;;;;;;;21.90;11.63;;;12.30;90.40;;;;;;4977273;28;20121;-88
2021/09/22 00:55:28;;;;;;;20.47;11.50;;;12.30;90.50;;;;;;4993687;28;20030;-87
2021/09/22 00:57:55;;;;;;;20.02;10.90;;;12.30;90.50;;;;;;4993851;28;20406;-87
2021/09/22 01:00:25;;;;;;;19.05;10.57;;;12.20;90.50;;;;;;4995210;28;20038;-91
2021/09/22 01:02:52;;;;;;;18.88;11.43;;;12.20;90.50;;;;;;4994368;28;20504;-90
2021/09/22 01:05:21;;;;;;;17.27;11.00;;;12.20;90.60;;;;;;4995357;28;20026;-89
2021/09/22 01:07:47;;;;;;;16.17;10.45;;;12.10;90.90;;;;;;4995607;28;20018;-90
2021/09/22 01:10:13;;;;;;;18.20;11.60;;;12.10;90.70;;;;;;4994777;28;20026;-91
2021/09/22 01:12:39;;;;;;;18.92;12.65;;;12.00;90.70;;;;;;4994301;28;20034;-92
2021/09/22 01:15:06;;;;;;;18.40;12.60;;;12.00;90.70;;;;;;4994252;28;20037;-89
2021/09/22 01:17:34;;;;;;;25.60;12.75;;;12.00;90.80;;;;;;4994578;28;20026;-91
2021/09/22 01:20:05;;;;;;;23.60;13.40;;;12.00;90.80;;;;;;4993904;28;20033;-89
2021/09/22 01:22:31;;;;;;;20.63;12.67;;;12.00;90.90;;;;;;4993456;28;20022;-90
2021/09/22 01:24:57;;;;;;;22.20;13.77;;;12.00;91.00;;;;;;4993837;28;20034;-90
2021/09/22 01:27:24;;;;;;;22.57;12.33;;;11.90;91.00;;;;;;4977516;28;20030;-89
2021/09/22 01:29:49;;;;;;;19.03;12.03;;;11.90;91.10;;;;;;4977644;28;20065;-91
2021/09/22 01:32:15;;;;;;;17.30;11.07;;;11.90;91.10;;;;;;4978251;28;20031;-92
2021/09/22 01:34:41;;;;;;;18.70;10.47;;;11.90;91.10;;;;;;4994182;28;20023;-92
2021/09/22 01:37:07;;;;;;;17.13;10.57;;;11.90;91.10;;;;;;4993996;28;20371;-93
2021/09/22 01:39:40;;;;;;;19.20;10.30;;;11.90;91.10;;;;;;4977245;28;20489;-88
2021/09/22 01:42:06;;;;;;;16.15;10.93;;;11.80;91.20;;;;;;4993599;28;20026;-88
2021/09/22 01:44:36;;;;;;;15.77;10.23;;;11.80;91.20;;;;;;4993123;28;20030;-88
2021/09/22 01:47:02;;;;;;;20.10;11.25;;;11.80;91.30;;;;;;4997166;28;20030;-88
2021/09/22 01:49:28;;;;;;;18.33;10.97;;;11.80;91.30;;;;;;4980453;28;20041;-87
2021/09/22 01:51:59;;;;;;;16.90;11.33;;;11.80;91.40;;;;;;4998330;28;20092;-88
2021/09/22 01:54:24;;;;;;;19.97;12.63;;;11.70;91.40;;;;;;4996733;28;20038;-87
2021/09/22 01:56:51;;;;;;;23.33;15.13;;;11.70;91.50;;;;;;4997232;28;20113;-89
2021/09/22 01:59:17;;;;;;;24.90;16.75;;;11.70;91.60;;;;;;4996997;28;20034;-89
2021/09/22 02:01:42;;;;;;;27.07;16.90;;;11.70;91.70;;;;;;4996900;28;20038;-89
2021/09/22 02:04:08;;;;;;;28.83;18.27;;;11.70;91.80;;;;;;4996771;28;20117;-89
2021/09/22 02:06:34;;;;;;;25.00;15.60;;;11.70;91.80;;;;;;4997148;28;20382;-89
2021/09/22 02:08:59;;;;;;;22.80;15.37;;;11.70;91.90;;;;;;4996645;28;20048;-89
2021/09/22 02:11:25;;;;;;;28.10;16.47;;;11.70;92.00;;;;;;4980777;28;20540;-90
2021/09/22 02:13:51;;;;;;;28.47;18.37;;;11.60;91.90;;;;;;4980925;28;20027;-89
2021/09/22 02:16:16;;;;;;;22.57;15.30;;;11.60;91.90;;;;;;4996910;28;20026;-89
2021/09/22 02:18:42;;;;;;;23.87;15.73;;;11.60;92.00;;;;;;4979959;28;20030;-88
2021/09/22 02:21:11;;;;;;;24.07;15.47;;;11.50;92.00;;;;;;4980052;28;20046;-88
2021/09/22 02:23:38;;;;;;;31.40;17.70;;;11.50;92.10;;;;;;4996361;28;20037;-88
2021/09/22 02:26:04;;;;;;;29.35;17.83;;;11.50;92.10;;;;;;4996315;28;20033;-88
2021/09/22 02:28:31;;;;;;;28.07;18.00;;;11.40;92.10;;;;;;4996448;28;20061;-88
2021/09/22 02:30:57;;;;;;;29.40;17.60;;;11.50;92.20;;;;;;4995714;28;20049;-88
2021/09/22 02:33:22;;;;;;;29.83;18.10;;;11.30;92.10;;;;;;4980280;28;20046;-88
2021/09/22 02:35:48;;;;;;;27.90;17.80;;;11.40;92.20;;;;;;4979788;28;20026;-88
2021/09/22 02:38:14;;;;;;;33.03;19.23;;;11.40;92.30;;;;;;4996223;28;20093;-87
2021/09/22 02:40:40;;;;;;;29.63;18.30;;;11.40;92.30;;;;;;4996060;28;20094;-88
2021/09/22 02:43:06;;;;;;;32.00;20.13;;;11.30;92.40;;;;;;4996163;28;20363;-88
2021/09/22 02:45:31;;;;;;;31.87;20.13;;;11.30;92.40;;;;;;4997083;28;20080;-88
2021/09/22 02:47:57;;;;;;;31.80;20.63;;;11.30;92.50;;;;;;4979793;28;20035;-87
2021/09/22 02:50:23;;;;;;;33.73;21.23;;;11.30;92.50;;;;;;4996143;28;20545;-87
2021/09/22 02:52:48;;;;;;;35.70;21.73;;;11.30;92.60;;;;;;4996100;28;20053;-87
2021/09/22 02:55:14;;;;;;;34.40;21.90;;;11.30;92.60;;;;;;4979723;28;20030;-87
2021/09/22 02:57:40;;;;;;;35.47;22.13;;;11.20;92.70;;;;;;4995104;28;20138;-87
2021/09/22 03:00:08;;;;;;;35.63;23.30;;;11.20;92.80;;;;;;4979693;28;20054;-88
2021/09/22 03:02:33;;;;;;;31.63;20.53;;;11.20;92.80;;;;;;4995986;28;20042;-88
2021/09/22 03:04:59;;;;;;;34.60;22.90;;;11.40;92.90;;;;;;4995921;28;20521;-88
2021/09/22 03:07:24;;;;;;;34.67;21.80;;;11.30;92.90;;;;;;4979472;28;20033;-89
2021/09/22 03:09:50;;;;;;;37.43;23.90;;;11.20;92.90;;;;;;4995536;28;20062;-87
2021/09/22 03:12:16;;;;;;;36.90;22.80;;;11.20;92.90;;;;;;4979367;28;20121;-87
2021/09/22 03:14:42;;;;;;;37.93;23.93;;;11.20;93.00;;;;;;4979571;28;20061;-88
2021/09/22 03:17:07;;;;;;;37.07;23.33;;;11.20;93.00;;;;;;4979605;28;20038;-88
2021/09/22 03:19:33;;;;;;;38.37;24.80;;;11.20;93.10;;;;;;4979233;28;20033;-88
2021/09/22 03:21:59;;;;;;;35.70;23.33;;;11.20;93.10;;;;;;4995652;28;20030;-88
2021/09/22 03:24:25;;;;;;;45.10;24.80;;;11.20;93.20;;;;;;4979082;28;20466;-88
2021/09/22 03:26:50;;;;;;;46.23;26.73;;;11.20;93.20;;;;;;4996084;28;20031;-88
2021/09/22 03:29:16;;;;;;;41.90;25.33;;;11.20;93.30;;;;;;4995531;28;20072;-90
2021/09/22 03:31:42;;;;;;;44.23;26.17;;;11.20;93.30;;;;;;4996033;28;20537;-88
2021/09/22 03:34:09;;;;;;;43.53;26.83;;;11.20;93.30;;;;;;4980042;28;20382;-89
2021/09/22 03:36:35;;;;;;;45.23;26.07;;;11.20;93.40;;;;;;4996563;28;20058;-89
2021/09/22 03:39:00;;;;;;;40.67;24.47;;;11.20;93.40;;;;;;4995370;28;20493;-89
2021/09/22 03:41:26;;;;;;;45.07;26.23;;;11.10;93.50;;;;;;4996359;28;20118;-88
2021/09/22 03:43:52;;;;;;;40.97;26.67;;;11.20;93.50;;;;;;4995328;28;20525;-88
2021/09/22 03:46:17;;;;;;;45.80;26.43;;;11.20;93.60;;;;;;4978708;28;20497;-88
2021/09/22 03:48:43;;;;;;;44.57;28.00;;;11.20;93.60;;;;;;4994953;28;20034;-88
2021/09/22 03:51:09;;;;;;;42.47;26.43;;;11.20;93.70;;;;;;4978808;28;20118;-88
2021/09/22 03:53:34;;;;;;;46.17;27.00;;;11.20;93.70;;;;;;4996045;28;20113;-87
2021/09/22 03:56:00;;;;;;;48.13;27.80;;;11.20;93.70;;;;;;4994707;28;20391;-87
2021/09/22 03:58:26;;;;;;;45.03;27.17;;;11.20;93.80;;;;;;4995828;28;20026;-88
2021/09/22 04:00:51;;;;;;;41.33;25.33;;;11.20;93.80;;;;;;4994132;28;20070;-88
2021/09/22 04:03:17;;;;;;;41.67;27.10;;;11.20;93.90;;;;;;4978472;28;20029;-87
2021/09/22 04:05:43;;;;;;;42.73;26.83;;;11.20;93.80;;;;;;4995225;28;20054;-88
2021/09/22 04:08:08;;;;;;;45.30;27.77;;;11.20;93.90;;;;;;4994464;28;20066;-88
2021/09/22 04:10:34;;;;;;;45.10;26.70;;;11.20;93.90;;;;;;4994518;28;20030;-88
2021/09/22 04:13:00;;;;;;;41.93;26.37;;;11.10;93.90;;;;;;4995460;28;20052;-88
2021/09/22 04:15:26;;;;;;;44.83;27.53;;;11.10;93.90;;;;;;4996275;28;20475;-89
2021/09/22 04:17:52;;;;;;;47.87;28.33;;;11.00;93.90;;;;;;4974479;28;20034;-91
2021/09/22 04:20:17;;;;;;;43.90;25.80;;;11.10;94.00;;;;;;4993315;28;20053;-91
2021/09/22 04:22:43;;;;;;;45.33;27.07;;;11.10;94.00;;;;;;4984661;28;20022;-93
2021/09/22 04:25:10;;;;;;;43.57;26.67;;;11.10;94.00;;;;;;4991379;28;20022;-91
2021/09/22 04:27:36;;;;;;;46.67;28.13;;;11.10;94.10;;;;;;4975659;28;20035;-90
2021/09/22 04:30:03;;;;;;;47.33;27.83;;;11.10;94.10;;;;;;4990868;28;20977;-90
2021/09/22 04:32:32;;;;;;;47.30;27.70;;;11.10;94.10;;;;;;4975407;28;20502;-89
2021/09/22 04:34:58;;;;;;;48.20;28.40;;;11.10;94.10;;;;;;4991315;28;20031;-91
2021/09/22 04:37:24;;;;;;;50.97;27.80;;;11.10;94.20;;;;;;4975406;28;20030;-90
2021/09/22 04:39:51;;;;;;;42.83;27.20;;;11.10;94.20;;;;;;4975969;28;20122;-90
2021/09/22 04:42:17;;;;;;;49.03;28.67;;;11.00;94.20;;;;;;4975610;28;20376;-92
2021/09/22 04:44:42;;;;;;;45.87;27.27;;;10.90;94.20;;;;;;4975749;28;20033;-92
2021/09/22 04:47:09;;;;;;;43.50;26.70;;;11.10;94.30;;;;;;4975349;28;20073;-90
2021/09/22 04:49:36;;;;;;;46.20;28.13;;;11.00;94.30;;;;;;4992019;28;20057;-90
2021/09/22 04:52:02;;;;;;;43.50;27.67;;;11.10;94.30;;;;;;4998382;28;20023;-90
2021/09/22 04:54:28;;;;;;;41.13;26.03;;;11.00;94.30;;;;;;4995643;28;20101;-91
2021/09/22 04:56:54;;;;;;;43.47;26.47;;;11.00;94.30;;;;;;4994993;28;20031;-92
2021/09/22 04:59:19;;;;;;;41.33;25.57;;;11.00;94.30;;;;;;4991772;28;20050;-91
2021/09/22 05:01:47;;;;;;;37.70;24.47;;;11.00;94.40;;;;;;4980903;28;20046;-93
2021/09/22 05:04:12;;;;;;;36.43;23.30;;;11.00;94.30;;;;;;4994222;28;20034;-93
2021/09/22 05:06:38;;;;;;;38.00;23.47;;;11.00;94.30;;;;;;4994460;28;20034;-92
2021/09/22 05:09:04;;;;;;;35.77;22.87;;;11.00;94.30;;;;;;4994344;28;20038;-91
2021/09/22 05:11:30;;;;;;;41.83;24.47;;;11.00;94.30;;;;;;4994223;28;20029;-91
2021/09/22 05:13:55;;;;;;;36.57;22.07;;;11.00;94.30;;;;;;4993991;28;20030;-92
2021/09/22 05:16:21;;;;;;;37.87;22.40;;;11.00;94.30;;;;;;4994223;28;20089;-92
2021/09/22 05:18:47;;;;;;;39.23;21.37;;;11.00;94.30;;;;;;5011586;28;20031;-95
2021/09/22 05:21:12;;;;;;;38.50;22.83;;;11.00;94.30;;;;;;4996256;28;20042;-93
2021/09/22 05:23:38;;;;;;;44.03;24.07;;;11.00;94.30;;;;;;5015977;28;20065;-92
2021/09/22 05:26:04;;;;;;;42.13;25.30;;;11.00;94.30;;;;;;4999175;28;20398;-90
2021/09/22 05:28:29;;;;;;;39.93;24.23;;;11.00;94.20;;;;;;4998266;28;20030;-91
2021/09/22 05:30:55;;;;;;;39.87;25.30;;;11.00;94.30;;;;;;4998831;28;20046;-91
2021/09/22 05:33:21;;;;;;;40.77;23.57;;;11.00;94.30;;;;;;4998896;28;20084;-83
2021/09/22 05:35:47;;;;;;;48.90;27.17;;;10.90;94.30;;;;;;4999267;28;20490;-89
2021/09/22 05:38:13;;;;;;;49.43;26.53;;;10.90;94.30;;;;;;5014999;28;20022;-91
2021/09/22 05:40:39;;;;;;;47.43;27.60;;;10.90;94.30;;;;;;5013915;28;20109;-89
2021/09/22 05:43:05;;;;;;;46.40;28.40;;;10.90;94.30;;;;;;4998701;28;20105;-89
2021/09/22 05:45:31;;;;;;;44.70;26.83;;;10.80;94.60;;;;;;5014741;28;20109;-89
2021/09/22 05:47:57;;;;;;;50.03;28.03;;;10.90;94.40;;;;;;4998180;28;20489;-90
2021/09/22 05:50:22;;;;;;;45.60;27.57;;;10.90;94.50;;;;;;4997893;28;20403;-90
2021/09/22 05:52:48;;;;;;;44.60;27.07;;;10.90;94.50;;;;;;4998956;28;20041;-90
2021/09/22 05:55:14;;;;;;;46.77;28.10;;;10.90;94.50;;;;;;5013903;28;20026;-90
2021/09/22 05:57:41;;;;;;;44.10;28.73;;;10.90;94.60;;;;;;4999300;28;20031;-90
2021/09/22 06:00:07;;;;;;;44.57;27.17;;;10.90;94.60;;;;;;4981462;28;20061;-89
2021/09/22 06:02:32;;;;;;;45.03;28.03;;;11.00;94.70;;;;;;4998201;28;20050;-90
2021/09/22 06:04:58;;;;;;;41.63;25.23;;;11.00;94.70;;;;;;4997976;28;20034;-91
2021/09/22 06:07:24;;;;;;;40.57;23.70;;;11.00;94.70;;;;;;4998085;28;20049;-90
2021/09/22 06:09:51;;;;;;;37.77;23.60;;;11.00;94.60;;;;;;4997539;28;20034;-89
2021/09/22 06:12:17;;;;;;;38.33;25.77;;;11.00;94.60;;;;;;4998736;28;20027;-91
2021/09/22 06:14:43;;;;;;;44.23;27.10;;;11.10;94.70;;;;;;4997215;28;20030;-89
2021/09/22 06:17:09;;;;;;;41.70;24.23;;;11.10;94.60;;;;;;4998661;28;20037;-90
2021/09/22 06:19:34;;;;;;;40.50;26.00;;;11.10;94.60;;;;;;5013727;28;20125;-90
2021/09/22 06:22:00;;;;;;;38.53;24.67;;;11.20;94.60;;;;;;4997284;28;20043;-90
2021/09/22 06:24:26;;;;;;;37.03;24.70;;;11.20;94.60;;;;;;4998238;28;20067;-88
2021/09/22 06:26:52;;;;;;;41.87;26.67;;;11.20;94.50;;;;;;4992265;28;20023;-91
2021/09/22 06:29:18;;;;;;;36.47;24.93;;;11.30;94.50;;;;;;4969321;28;20030;-90
2021/09/22 06:31:43;;;;;;;44.30;26.90;;;11.20;94.40;;;;;;4987643;28;20042;-91
2021/09/22 06:34:09;;;;;;;37.97;26.23;;;11.30;94.40;;;;;;4967465;28;20030;-91
2021/09/22 06:36:35;;;;;;;44.07;27.53;;;11.30;94.30;;;;;;4991455;28;20027;-90
2021/09/22 06:39:00;;;;;;;40.10;27.02;;;11.30;94.30;;;;;;4969304;28;20027;-89
2021/09/22 06:41:29;;;;;;;43.43;26.57;;;11.30;94.30;;;;;;4970537;28;20062;-90
2021/09/22 06:43:56;;;;;;;39.23;27.87;;;11.40;94.40;;;;;;5007074;28;20034;-89
2021/09/22 06:46:22;;;;;;;39.65;26.58;;;11.50;94.40;;;;;;5025107;28;20463;-91
2021/09/22 06:48:47;;;;;;;39.95;26.42;;;11.40;94.40;;;;;;5009992;28;20066;-90
2021/09/22 06:51:17;;;;;;;39.07;26.27;;;11.50;94.40;;;;;;4982602;28;20035;-91
2021/09/22 06:53:43;;;;;;;42.78;28.10;;;11.50;94.40;;;;;;5029353;28;20031;-90
2021/09/22 06:56:09;;;;;;;45.50;27.30;;;11.50;94.30;;;;;;4980592;28;20125;-90
2021/09/22 06:58:34;;;;;;;44.00;28.08;;;11.60;94.30;;;;;;4997500;28;20556;-88
2021/09/22 07:01:00;;;;;;;44.20;27.97;;;11.60;94.30;;;;;;4995540;28;20043;-89
2021/09/22 07:03:26;;;;;;;44.07;28.40;;;11.60;94.30;;;;;;4997135;28;20031;-90
2021/09/22 07:05:52;;;;;;;43.70;29.07;;;11.60;94.30;;;;;;4995976;28;20037;-88
2021/09/22 07:08:17;;;;;;;41.42;28.35;;;11.70;94.30;;;;;;4979395;28;20101;-88
2021/09/22 07:10:43;;;;;;;44.53;28.27;;;11.70;94.30;;;;;;4996021;28;20022;-87
2021/09/22 07:13:09;;;;;;;47.28;27.58;;;11.80;94.30;;;;;;4980155;28;20023;-88
2021/09/22 07:15:35;;;;;;;45.10;27.70;;;11.80;94.40;;;;;;4995931;28;20038;-84
2021/09/22 07:18:01;;;;;;;40.88;27.77;;;11.80;94.30;;;;;;4994494;28;20022;-85
2021/09/22 07:20:27;;;;;;;41.90;28.60;;;11.90;94.30;;;;;;4978120;28;20065;-84
2021/09/22 07:22:53;;;;;;;40.67;26.42;;;12.00;94.30;;;;;;4977983;28;20105;-84
2021/09/22 07:25:18;;;;;;;40.83;27.33;;;12.00;94.30;;;;;;4988567;28;20476;-84
2021/09/22 07:27:44;;;;;;;36.05;26.50;;;12.10;94.30;;;;;;4991744;28;20031;-84
2021/09/22 07:30:13;;;;;;;39.63;25.98;;;12.10;94.20;;;;;;4977010;28;20050;-84
2021/09/22 07:32:40;;;;;;;40.92;26.13;;;12.20;94.20;;;;;;4992253;28;20034;-85
2021/09/22 07:35:06;;;;;;;38.92;26.65;;;12.30;94.10;;;;;;4970275;28;20114;-86
2021/09/22 07:37:32;;;;;;;45.88;28.00;;;12.30;94.10;;;;;;4984090;28;20161;-84
2021/09/22 07:39:58;;;;;;;39.25;27.00;;;12.40;94.10;;;;;;4977266;28;20046;-85
2021/09/22 07:42:24;;;;;;;38.25;27.05;;;12.50;94.00;;;;;;4958523;28;20391;-84
2021/09/22 07:44:53;;;;;;;38.85;26.75;;;12.60;94.00;;;;;;4982873;28;20036;-84
2021/09/22 07:47:20;;;;;;;33.30;24.05;;;12.60;94.00;;;;;;4991974;28;20026;-84
2021/09/22 07:49:48;;;;;;;36.03;25.45;;;12.70;93.90;;;;;;4991144;28;20031;-84
2021/09/22 07:52:17;;;;;;;40.50;26.42;;;12.70;93.90;;;;;;4993909;28;20027;-84
2021/09/22 07:54:43;;;;;;;40.83;26.65;;;12.80;93.80;;;;;;4993685;28;20030;-84
2021/09/22 07:57:10;;;;;;;35.70;24.45;;;12.90;93.80;;;;;;4993368;28;20110;-85
2021/09/22 07:59:36;;;;;;;40.60;25.42;;;12.90;93.80;;;;;;4993045;28;20030;-84
2021/09/22 08:02:02;;;;;;;36.45;25.45;;;13.00;93.70;;;;;;4992678;28;20042;-84
2021/09/22 08:04:28;;;;;;;37.90;25.45;;;13.10;93.70;;;;;;4992938;28;20050;-84
2021/09/22 08:06:56;;;;;;;37.45;25.60;;;13.10;93.60;;;;;;4994974;28;20463;-83
2021/09/22 08:09:22;;;;;;;35.28;24.85;;;13.20;93.60;;;;;;4993089;28;20031;-84
2021/09/22 08:11:47;;;;;;;33.92;24.58;;;13.30;93.60;;;;;;4993395;28;20034;-84
2021/09/22 08:14:13;;;;;;;35.42;24.00;;;13.40;93.60;;;;;;4992879;28;20026;-84
2021/09/22 08:16:39;;;;;;;35.33;24.42;;;13.40;93.60;;;;;;4993970;28;20030;-83
2021/09/22 08:19:05;;;;;;;35.10;24.20;;;13.50;93.50;;;;;;4976329;28;20030;-85
2021/09/22 08:21:30;;;;;;;38.03;24.85;;;13.60;93.50;;;;;;4974120;28;20133;-83
2021/09/22 08:23:56;;;;;;;35.90;25.00;;;13.70;93.40;;;;;;4990945;28;20474;-84
2021/09/22 08:26:22;;;;;;;34.72;24.08;;;13.70;93.30;;;;;;4974905;28;20030;-85
2021/09/22 08:28:48;;;;;;;34.17;23.98;;;13.80;93.20;;;;;;4992237;28;20033;-85
2021/09/22 08:31:14;;;;;;;32.08;23.20;;;13.90;93.20;;;;;;4990027;28;20059;-84
2021/09/22 08:33:39;;;;;;;30.63;20.77;;;14.00;93.10;;;;;;4972644;28;20125;-84
2021/09/22 08:36:08;;;;;;;31.70;22.65;;;14.10;93.10;;;;;;4972928;28;20035;-83
2021/09/22 08:38:34;;;;;;;31.73;21.15;;;14.20;93.00;;;;;;4957888;28;20031;-83
2021/09/22 08:41:00;;;;;;;30.17;21.75;;;14.30;92.90;;;;;;4988281;28;20089;-83
2021/09/22 08:43:28;;;;;;;29.83;21.70;;;14.40;92.80;;;;;;5004654;28;20441;-84
2021/09/22 08:45:54;;;;;;;30.75;20.40;;;14.50;92.70;;;;;;5012519;28;20036;-83
2021/09/22 08:48:20;;;;;;;29.52;20.05;;;14.60;92.60;;;;;;5011733;28;20493;-85
2021/09/22 08:50:46;;;;;;;35.13;21.13;;;14.70;92.40;;;;;;4995874;28;20076;-83
2021/09/22 08:53:12;;;;;;;23.63;17.13;;;14.80;92.30;;;;;;5006790;28;20034;-84
2021/09/22 08:55:38;;;;;;;25.75;16.80;;;14.90;92.10;;;;;;4984447;28;20033;-84
2021/09/22 08:58:03;;;;;;;26.25;16.60;;;15.00;92.00;;;;;;4981790;28;20463;-84
2021/09/22 09:00:29;;;;;;;23.90;16.08;;;15.00;91.80;;;;;;4991439;28;20046;-83
2021/09/22 09:02:55;;;;;;;25.13;16.70;;;15.10;91.50;;;;;;4997428;28;20035;-84
2021/09/22 09:05:21;;;;;;;21.73;14.93;;;15.20;91.40;;;;;;4974401;28;20042;-83
2021/09/22 09:07:58;;;;;;;25.27;15.95;;;15.30;91.20;;;;;;4972737;28;20035;-84
2021/09/22 09:10:30;;;;;;;21.85;15.77;;;15.40;91.00;;;;;;4974523;28;20379;-84
2021/09/22 09:13:08;;;;;;;24.65;16.85;;;15.50;90.90;;;;;;5005642;28;20566;-85
2021/09/22 09:15:37;;;;;;;22.27;15.30;;;15.60;90.60;;;;;;5005663;28;20502;-83
2021/09/22 09:18:18;;;;;;;21.80;15.25;;;15.70;90.50;;;;;;4973908;28;20069;-84
2021/09/22 09:20:54;;;;;;;20.92;13.60;;;15.90;90.30;;;;;;5005179;28;20077;-84
2021/09/22 09:23:22;;;;;;;18.83;13.30;;;16.00;90.00;;;;;;5005508;28;20113;-83
2021/09/22 09:26:00;;;;;;;21.98;13.73;;;16.00;88.80;;;;;;4988801;28;20019;-83
2021/09/22 09:28:29;;;;;;;21.10;13.30;;;16.10;88.20;;;;;;4973914;28;20054;-83
2021/09/22 09:31:06;;;;;;;21.50;13.75;;;16.20;87.50;;;;;;5005149;28;20047;-85
2021/09/22 09:33:37;;;;;;;19.92;14.25;;;16.20;87.20;;;;;;5004936;28;20070;-87
2021/09/22 09:36:35;;;;;;;19.83;12.85;;;16.30;86.80;;;;;;4988738;28;20057;-83
2021/09/22 09:39:12;;;;;;;16.48;12.00;;;16.50;85.90;;;;;;4973781;28;20476;-83
2021/09/22 09:41:51;;;;;;;17.05;12.23;;;16.60;85.60;;;;;;4988823;28;20399;-84
2021/09/22 09:44:26;;;;;;;17.60;12.00;;;16.70;85.10;;;;;;4989043;28;20534;-84
2021/09/22 09:46:53;;;;;;;17.20;12.00;;;16.80;84.70;;;;;;4988663;28;20136;-84
2021/09/22 09:49:24;;;;;;;19.00;12.40;;;16.90;83.80;;;;;;4988888;28;20031;-82
2021/09/22 09:51:54;;;;;;;20.73;11.85;;;17.10;83.30;;;;;;4973667;28;20027;-83
2021/09/22 09:54:28;;;;;;;18.88;11.95;;;17.30;81.80;;;;;;4988913;28;20116;-83
2021/09/22 09:56:56;;;;;;;19.05;13.13;;;17.50;79.90;;;;;;5000947;28;20037;-84
2021/09/22 09:59:27;;;;;;;20.48;12.32;;;17.80;78.70;;;;;;4988590;28;20027;-87
2021/09/22 10:01:54;;;;;;;14.80;9.60;;;18.10;77.60;;;;;;4980658;28;20168;-85
2021/09/22 10:04:24;;;;;;;14.55;8.60;;;18.60;78.00;;;;;;4984516;28;20026;-83
2021/09/22 10:06:51;;;;;;;13.88;9.55;;;19.00;77.60;;;;;;4983655;28;20033;-84
2021/09/22 10:09:18;;;;;;;15.10;8.77;;;19.40;76.30;;;;;;4985384;28;20042;-83
2021/09/22 10:11:45;;;;;;;14.50;8.93;;;20.00;75.60;;;;;;4977120;28;20026;-88
2021/09/22 10:14:13;;;;;;;11.88;8.05;;;20.50;73.70;;;;;;4960319;28;20101;-88
2021/09/22 10:16:40;;;;;;;13.35;7.60;;;21.00;72.50;;;;;;4976246;28;20486;-84
2021/09/22 10:19:07;;;;;;;11.10;7.70;;;21.60;71.70;;;;;;4976412;28;20027;-86
2021/09/22 10:21:34;;;;;;;10.10;6.57;;;22.20;70.00;;;;;;4982009;28;20042;-83
2021/09/22 10:24:09;;;;;;;10.70;7.55;;;22.80;68.50;;;;;;4983617;28;20371;-85
2021/09/22 10:26:38;;;;;;;10.27;6.22;;;23.30;67.00;;;;;;4977842;28;20422;-85
2021/09/22 10:29:25;;;;;;;12.80;8.60;;;23.80;65.30;;;;;;4978985;28;20027;-87
2021/09/22 10:31:51;;;;;;;12.20;7.78;;;24.20;61.90;;;;;;4976825;28;20431;-84
2021/09/22 10:34:35;;;;;;;12.13;7.70;;;24.50;61.00;;;;;;4961334;28;20541;-85
2021/09/22 10:37:05;;;;;;;10.60;7.43;;;24.90;58.80;;;;;;4978843;28;20085;-83
2021/09/22 10:39:37;;;;;;;12.02;7.18;;;25.30;57.70;;;;;;4994941;28;20101;-87
2021/09/22 10:42:34;;;;;;;10.70;7.00;;;25.70;56.10;;;;;;5018344;28;20509;-87
2021/09/22 10:45:14;;;;;;;10.85;6.75;;;26.20;54.90;;;;;;4977333;28;20030;-91
2021/09/22 10:47:40;;;;;;;10.07;6.55;;;26.40;54.80;;;;;;4997178;28;20023;-93
2021/09/22 10:50:31;;;;;;;9.27;6.35;;;26.40;54.80;;;;;;4997173;28;20109;-91
2021/09/22 10:52:57;;;;;;;11.35;6.88;;;26.40;53.80;;;;;;4998262;28;20111;-91
2021/09/22 10:55:23;;;;;;;8.93;5.43;;;26.20;53.40;;;;;;4999738;28;20467;-92
2021/09/22 10:57:49;;;;;;;9.43;5.55;;;26.10;52.60;;;;;;4980226;28;20028;-89
2021/09/22 11:00:16;;;;;;;8.35;5.57;;;26.10;52.20;;;;;;4994007;28;20395;-89
2021/09/22 11:02:53;;;;;;;12.18;6.38;;;26.00;51.80;;;;;;4984304;28;20022;-92
2021/09/22 11:05:27;;;;;;;12.00;6.72;;;26.00;51.50;;;;;;4988845;28;20078;-91
2021/09/22 11:07:58;;;;;;;9.95;6.35;;;26.00;51.20;;;;;;4987744;28;20026;-94
2021/09/22 11:10:52;;;;;;;9.80;6.43;;;26.00;51.00;;;;;;4990197;28;20097;-94
2021/09/22 11:13:23;;;;;;;8.68;5.50;;;26.00;50.40;;;;;;4984460;28;20027;-93
2021/09/22 11:15:51;;;;;;;13.38;6.88;;;26.00;50.50;;;;;;4992194;28;20018;-92
2021/09/22 11:18:17;;;;;;;10.43;6.93;;;26.00;50.00;;;;;;4994079;28;20030;-91
2021/09/22 11:20:58;;;;;;;11.98;6.95;;;25.90;50.00;;;;;;4996716;28;20038;-94
2021/09/22 11:23:24;;;;;;;9.50;7.03;;;26.00;49.90;;;;;;4988492;28;20035;-90
2021/09/22 11:25:51;;;;;;;10.43;6.90;;;26.00;50.00;;;;;;4976057;28;20475;-94
2021/09/22 11:28:17;;;;;;;13.65;7.03;;;26.00;49.70;;;;;;4976563;28;20090;-91
2021/09/22 11:30:44;;;;;;;9.02;6.13;;;26.20;49.70;;;;;;4977502;28;20412;-93
2021/09/22 11:33:21;;;;;;;9.77;6.13;;;26.20;49.40;;;;;;4975984;28;20080;-90
2021/09/22 11:35:46;;;;;;;10.52;6.03;;;26.30;48.80;;;;;;4976091;28;20037;-94
2021/09/22 11:38:12;;;;;;;9.30;6.50;;;26.40;49.00;;;;;;4975992;28;20030;-90
2021/09/22 11:40:41;;;;;;;7.75;5.20;;;26.50;48.70;;;;;;4977032;28;20117;-92
2021/09/22 11:43:19;;;;;;;9.27;5.78;;;26.60;48.60;;;;;;4975723;28;20475;-92
2021/09/22 11:45:58;;;;;;;7.72;4.97;;;26.80;48.00;;;;;;4982692;28;20113;-92
2021/09/22 11:48:34;;;;;;;9.10;4.38;;;26.90;47.80;;;;;;4982163;28;20026;-92
2021/09/22 11:51:03;;;;;;;10.23;5.97;;;27.10;47.50;;;;;;4987158;28;20054;-92
2021/09/22 11:53:30;;;;;;;9.82;5.50;;;27.20;47.40;;;;;;4996436;28;20462;-92
2021/09/22 11:55:57;;;;;;;8.02;5.13;;;27.30;47.20;;;;;;4995654;28;20030;-91
2021/09/22 11:58:28;;;;;;;7.03;4.38;;;27.50;47.10;;;;;;4990066;28;20497;-91
2021/09/22 12:00:57;;;;;;;8.73;4.32;;;27.60;46.70;;;;;;5008511;28;20046;-90
2021/09/22 12:03:25;;;;;;;8.52;4.72;;;27.80;46.50;;;;;;5010711;28;20033;-94
2021/09/22 12:06:11;;;;;;;11.50;5.25;;;27.90;46.10;;;;;;5017769;28;20175;-93
2021/09/22 12:08:40;;;;;;;7.57;4.35;;;28.10;45.50;;;;;;5016847;28;20117;-94
2021/09/22 12:11:07;;;;;;;6.80;4.38;;;28.40;45.70;;;;;;4999200;28;20052;-93
2021/09/22 12:13:44;;;;;;;7.28;4.35;;;28.50;45.50;;;;;;5015724;28;20122;-91
2021/09/22 12:16:10;;;;;;;7.70;3.92;;;28.70;44.80;;;;;;5013068;28;20042;-93
2021/09/22 12:18:39;;;;;;;7.30;3.60;;;28.80;44.80;;;;;;4984483;28;20026;-92
2021/09/22 12:21:05;;;;;;;6.63;3.95;;;29.00;45.10;;;;;;5008766;28;20038;-89
2021/09/22 12:23:34;;;;;;;9.65;4.28;;;29.10;44.00;;;;;;5008565;28;20122;-95
2021/09/22 12:26:11;;;;;;;6.18;4.00;;;29.30;44.00;;;;;;4977107;28;20022;-94
2021/09/22 12:28:37;;;;;;;7.07;3.85;;;29.40;43.50;;;;;;4980893;28;20038;-93
2021/09/22 12:31:15;;;;;;;6.43;3.72;;;29.60;43.60;;;;;;4967708;28;20050;-96
2021/09/22 12:33:44;;;;;;;6.47;3.00;;;29.60;42.80;;;;;;4991474;28;20109;-92